Terminal Aerodrome Forecast
Issued by NWS

Home | Current Version | Previous Version | Text Only | Print | Product List | Glossary On
Versions: 1 2 3 4 5 6 7 8 9 10 11 12 13 14 15 16 17 18 19 20
000
FTUS42 KJAX 050540
TAFVQQ
TAF
KVQQ 050540Z 0506/0606 00000KT 5SM BR FEW100 SCT250
     FM051200 VRB02KT 6SM HZ SCT250
     FM051400 25004KT P6SM SCT030 SCT120
     FM051900 22007KT P6SM VCTS SCT040CB BKN060
      TEMPO 0520/0524 VRB15G25KT 3SM TSRA BR BKN030CB OVC060
     FM060200 19004KT P6SM SCT100 BKN200=

USA.gov is the U.S. government's official web portal to all federal, state and local government web resources and services.